Portada
METAR-TAF:

METAR-TAF

Aeropuertos :

Aeropuerto Internacional de Dzaoudzi Pamandzi

Dzaoudzi, Mayotte

latitud: 12-48S, longitud: 045-17E, altitud: 8 m

Observación

El informe se hizo hace 12 minutos, a las 03:30 UTC
Viento 15 kt del sur-suroeste
Temperatura 27°C
Humedad 79%
Presión 1012 hPa
Visibilidad 10 km o más
Escasas nubes a una altura de 2500 ft
Nubes dispersas a una altura de 3000 ft
Cielo cubierto a una altura de 5800 ft

METAR: FMCZ 080330Z AUTO 21015KT 9999 FEW025 SCT030 OVC058 27/23 Q1012 NOSIG

Hora: 06:42 (03:42 UTC)

Pronóstico

El informe se hizo hace 4 horas y 42 minutos, a las 23:00 UTC
Pronóstico válido del 08 a las 00 UTC al 08 a las 24 UTC
Viento 14 kt del suroeste
Visibilidad 10 km o más
sin nubes por debajo de 1500 m y sin presencia de cumulonimbus.

TAF: FMCZ 072300Z 0800/0824 23014KT CAVOK

Observaciones y pronósticos meteorológicos de más de 4000 aeropuertos (mensajes METAR y TAF).

Los puntos amarillos y rojos representan las estaciones disponibles.

Ponga el ratón en el punto deseado para ver el nombre de la estación.

Haga clic para ver las observaciones y los pronósticos meteorológicos.

Para cambiar el mapa : haga clic en los botones verdes con una cruz de color negro para hacer un zoom, en el botón verde con un guión para alejar o en las flechas verdes para mapas adyacentes.


METAR-TAF: